sensor_id;sensor_type;location;lat;lon;timestamp;P1;durP1;ratioP1;P2;durP2;ratioP2
3197;SDS011;1611;49.394;11.136;2023-10-19T00:00:15;36.63;;;26.40;;
3197;SDS011;1611;49.394;11.136;2023-10-19T00:02:48;33.13;;;25.13;;
3197;SDS011;1611;49.394;11.136;2023-10-19T00:05:16;38.90;;;27.70;;
3197;SDS011;1611;49.394;11.136;2023-10-19T00:07:43;35.63;;;25.70;;
3197;SDS011;1611;49.394;11.136;2023-10-19T00:10:09;40.30;;;27.17;;
3197;SDS011;1611;49.394;11.136;2023-10-19T00:12:40;39.47;;;27.40;;
3197;SDS011;1611;49.394;11.136;2023-10-19T00:15:06;46.03;;;30.37;;
3197;SDS011;1611;49.394;11.136;2023-10-19T00:17:36;37.60;;;27.00;;
3197;SDS011;1611;49.394;11.136;2023-10-19T00:20:04;38.57;;;26.67;;
3197;SDS011;1611;49.394;11.136;2023-10-19T00:23:04;39.57;;;26.93;;
3197;SDS011;1611;49.394;11.136;2023-10-19T00:25:30;38.23;;;25.40;;
3197;SDS011;1611;49.394;11.136;2023-10-19T00:27:59;42.57;;;26.83;;
3197;SDS011;1611;49.394;11.136;2023-10-19T00:30:27;40.53;;;27.30;;
3197;SDS011;1611;49.394;11.136;2023-10-19T00:32:59;36.73;;;25.97;;
3197;SDS011;1611;49.394;11.136;2023-10-19T00:35:29;43.10;;;27.43;;
3197;SDS011;1611;49.394;11.136;2023-10-19T00:38:00;39.37;;;27.63;;
3197;SDS011;1611;49.394;11.136;2023-10-19T00:40:50;47.80;;;30.37;;
3197;SDS011;1611;49.394;11.136;2023-10-19T00:43:26;38.63;;;27.90;;
3197;SDS011;1611;49.394;11.136;2023-10-19T00:45:58;39.40;;;29.30;;
3197;SDS011;1611;49.394;11.136;2023-10-19T00:48:29;43.27;;;30.60;;
3197;SDS011;1611;49.394;11.136;2023-10-19T00:51:00;43.73;;;30.20;;
3197;SDS011;1611;49.394;11.136;2023-10-19T00:53:34;42.90;;;30.43;;
3197;SDS011;1611;49.394;11.136;2023-10-19T00:56:04;46.17;;;31.63;;
3197;SDS011;1611;49.394;11.136;2023-10-19T00:58:34;37.97;;;27.83;;
3197;SDS011;1611;49.394;11.136;2023-10-19T01:01:03;41.40;;;29.80;;
3197;SDS011;1611;49.394;11.136;2023-10-19T01:03:33;41.30;;;29.63;;
3197;SDS011;1611;49.394;11.136;2023-10-19T01:06:03;46.23;;;29.13;;
3197;SDS011;1611;49.394;11.136;2023-10-19T01:08:38;41.93;;;29.83;;
3197;SDS011;1611;49.394;11.136;2023-10-19T01:11:09;42.40;;;30.13;;
3197;SDS011;1611;49.394;11.136;2023-10-19T01:13:37;44.80;;;31.00;;
3197;SDS011;1611;49.394;11.136;2023-10-19T01:16:11;38.63;;;29.20;;
3197;SDS011;1611;49.394;11.136;2023-10-19T01:18:47;40.57;;;29.63;;
3197;SDS011;1611;49.394;11.136;2023-10-19T01:21:18;44.80;;;30.57;;
3197;SDS011;1611;49.394;11.136;2023-10-19T01:23:47;42.53;;;28.70;;
3197;SDS011;1611;49.394;11.136;2023-10-19T01:26:14;47.67;;;31.57;;
3197;SDS011;1611;49.394;11.136;2023-10-19T01:28:47;39.43;;;28.57;;
3197;SDS011;1611;49.394;11.136;2023-10-19T01:31:17;47.37;;;31.77;;
3197;SDS011;1611;49.394;11.136;2023-10-19T01:33:56;41.33;;;29.00;;
3197;SDS011;1611;49.394;11.136;2023-10-19T01:36:24;45.30;;;30.00;;
3197;SDS011;1611;49.394;11.136;2023-10-19T01:38:53;44.13;;;29.37;;
3197;SDS011;1611;49.394;11.136;2023-10-19T01:41:21;42.37;;;31.57;;
3197;SDS011;1611;49.394;11.136;2023-10-19T01:43:50;50.27;;;31.43;;
3197;SDS011;1611;49.394;11.136;2023-10-19T01:46:18;45.63;;;31.87;;
3197;SDS011;1611;49.394;11.136;2023-10-19T01:48:50;47.00;;;32.20;;
3197;SDS011;1611;49.394;11.136;2023-10-19T01:51:21;47.73;;;31.73;;
3197;SDS011;1611;49.394;11.136;2023-10-19T01:53:49;42.23;;;30.60;;
3197;SDS011;1611;49.394;11.136;2023-10-19T01:56:17;42.17;;;30.13;;
3197;SDS011;1611;49.394;11.136;2023-10-19T01:58:46;45.10;;;30.97;;
3197;SDS011;1611;49.394;11.136;2023-10-19T02:01:13;49.63;;;31.57;;
3197;SDS011;1611;49.394;11.136;2023-10-19T02:03:45;47.03;;;31.17;;
3197;SDS011;1611;49.394;11.136;2023-10-19T02:06:12;44.13;;;32.23;;
3197;SDS011;1611;49.394;11.136;2023-10-19T02:08:45;41.83;;;30.27;;
3197;SDS011;1611;49.394;11.136;2023-10-19T02:11:13;50.90;;;31.80;;
3197;SDS011;1611;49.394;11.136;2023-10-19T02:13:44;49.17;;;32.30;;
3197;SDS011;1611;49.394;11.136;2023-10-19T02:16:11;49.03;;;32.63;;
3197;SDS011;1611;49.394;11.136;2023-10-19T02:18:41;43.37;;;32.53;;
3197;SDS011;1611;49.394;11.136;2023-10-19T02:21:07;58.23;;;35.20;;
3197;SDS011;1611;49.394;11.136;2023-10-19T02:23:37;47.67;;;31.00;;
3197;SDS011;1611;49.394;11.136;2023-10-19T02:26:04;49.33;;;33.80;;
3197;SDS011;1611;49.394;11.136;2023-10-19T02:28:30;48.70;;;32.93;;
3197;SDS011;1611;49.394;11.136;2023-10-19T02:31:03;51.13;;;35.07;;
3197;SDS011;1611;49.394;11.136;2023-10-19T02:33:37;48.17;;;33.97;;
3197;SDS011;1611;49.394;11.136;2023-10-19T02:36:04;51.57;;;33.87;;
3197;SDS011;1611;49.394;11.136;2023-10-19T02:38:37;51.80;;;34.53;;
3197;SDS011;1611;49.394;11.136;2023-10-19T02:41:05;52.50;;;32.97;;
3197;SDS011;1611;49.394;11.136;2023-10-19T02:43:31;50.87;;;30.87;;
3197;SDS011;1611;49.394;11.136;2023-10-19T02:45:59;56.97;;;34.10;;
3197;SDS011;1611;49.394;11.136;2023-10-19T02:48:28;51.97;;;33.47;;
3197;SDS011;1611;49.394;11.136;2023-10-19T02:50:56;46.00;;;32.60;;
3197;SDS011;1611;49.394;11.136;2023-10-19T02:53:31;54.10;;;33.30;;
3197;SDS011;1611;49.394;11.136;2023-10-19T02:55:58;44.83;;;32.50;;
3197;SDS011;1611;49.394;11.136;2023-10-19T02:58:26;53.90;;;34.80;;
3197;SDS011;1611;49.394;11.136;2023-10-19T03:00:56;49.43;;;35.07;;
3197;SDS011;1611;49.394;11.136;2023-10-19T03:03:22;51.93;;;35.27;;
3197;SDS011;1611;49.394;11.136;2023-10-19T03:05:51;48.87;;;33.27;;
3197;SDS011;1611;49.394;11.136;2023-10-19T03:08:17;43.00;;;31.30;;
3197;SDS011;1611;49.394;11.136;2023-10-19T03:10:45;44.93;;;30.47;;
3197;SDS011;1611;49.394;11.136;2023-10-19T03:13:11;43.83;;;30.77;;
3197;SDS011;1611;49.394;11.136;2023-10-19T03:15:40;52.33;;;33.60;;
3197;SDS011;1611;49.394;11.136;2023-10-19T03:18:07;44.63;;;33.23;;
3197;SDS011;1611;49.394;11.136;2023-10-19T03:20:37;44.60;;;32.70;;
3197;SDS011;1611;49.394;11.136;2023-10-19T03:23:04;44.67;;;32.83;;
3197;SDS011;1611;49.394;11.136;2023-10-19T03:25:31;43.57;;;30.67;;
3197;SDS011;1611;49.394;11.136;2023-10-19T03:28:34;48.43;;;34.33;;
3197;SDS011;1611;49.394;11.136;2023-10-19T03:31:01;47.20;;;30.70;;
3197;SDS011;1611;49.394;11.136;2023-10-19T03:33:29;45.30;;;32.43;;
3197;SDS011;1611;49.394;11.136;2023-10-19T03:35:56;46.03;;;32.73;;
3197;SDS011;1611;49.394;11.136;2023-10-19T03:38:25;44.77;;;29.50;;
3197;SDS011;1611;49.394;11.136;2023-10-19T03:40:56;44.40;;;32.77;;
3197;SDS011;1611;49.394;11.136;2023-10-19T03:43:31;48.40;;;32.37;;
3197;SDS011;1611;49.394;11.136;2023-10-19T03:45:58;43.97;;;31.03;;
3197;SDS011;1611;49.394;11.136;2023-10-19T03:48:29;50.23;;;34.50;;
3197;SDS011;1611;49.394;11.136;2023-10-19T03:51:03;44.63;;;30.27;;
3197;SDS011;1611;49.394;11.136;2023-10-19T03:53:32;43.07;;;31.60;;
3197;SDS011;1611;49.394;11.136;2023-10-19T03:56:03;43.40;;;33.07;;
3197;SDS011;1611;49.394;11.136;2023-10-19T03:58:35;42.00;;;31.47;;
3197;SDS011;1611;49.394;11.136;2023-10-19T04:01:04;43.13;;;30.60;;
3197;SDS011;1611;49.394;11.136;2023-10-19T04:03:32;46.43;;;30.33;;
3197;SDS011;1611;49.394;11.136;2023-10-19T04:06:01;37.87;;;29.17;;
3197;SDS011;1611;49.394;11.136;2023-10-19T04:08:29;42.80;;;30.90;;
3197;SDS011;1611;49.394;11.136;2023-10-19T04:11:02;43.83;;;30.40;;
3197;SDS011;1611;49.394;11.136;2023-10-19T04:13:36;43.50;;;30.40;;
3197;SDS011;1611;49.394;11.136;2023-10-19T04:16:04;42.90;;;30.73;;
3197;SDS011;1611;49.394;11.136;2023-10-19T04:18:33;44.60;;;30.13;;
3197;SDS011;1611;49.394;11.136;2023-10-19T04:21:03;40.40;;;29.23;;
3197;SDS011;1611;49.394;11.136;2023-10-19T04:23:31;50.93;;;35.20;;
3197;SDS011;1611;49.394;11.136;2023-10-19T04:26:01;46.65;;;32.25;;
3197;SDS011;1611;49.394;11.136;2023-10-19T04:28:35;41.73;;;30.40;;
3197;SDS011;1611;49.394;11.136;2023-10-19T04:31:06;51.30;;;33.27;;
3197;SDS011;1611;49.394;11.136;2023-10-19T04:33:38;44.63;;;30.97;;
3197;SDS011;1611;49.394;11.136;2023-10-19T04:36:07;45.33;;;30.57;;
3197;SDS011;1611;49.394;11.136;2023-10-19T04:38:37;44.93;;;32.20;;
3197;SDS011;1611;49.394;11.136;2023-10-19T04:41:05;44.40;;;31.43;;
3197;SDS011;1611;49.394;11.136;2023-10-19T04:43:35;55.93;;;35.90;;
3197;SDS011;1611;49.394;11.136;2023-10-19T04:46:09;45.87;;;32.27;;
3197;SDS011;1611;49.394;11.136;2023-10-19T04:48:38;44.27;;;32.90;;
3197;SDS011;1611;49.394;11.136;2023-10-19T04:51:06;43.63;;;30.67;;
3197;SDS011;1611;49.394;11.136;2023-10-19T04:53:34;46.97;;;31.00;;
3197;SDS011;1611;49.394;11.136;2023-10-19T04:56:02;43.43;;;31.77;;
3197;SDS011;1611;49.394;11.136;2023-10-19T04:58:30;45.30;;;30.80;;
3197;SDS011;1611;49.394;11.136;2023-10-19T05:00:57;50.10;;;32.30;;
3197;SDS011;1611;49.394;11.136;2023-10-19T05:03:24;53.23;;;33.93;;
3197;SDS011;1611;49.394;11.136;2023-10-19T05:05:52;47.17;;;32.53;;
3197;SDS011;1611;49.394;11.136;2023-10-19T05:08:21;46.40;;;34.50;;
3197;SDS011;1611;49.394;11.136;2023-10-19T05:10:50;48.03;;;31.80;;
3197;SDS011;1611;49.394;11.136;2023-10-19T05:13:18;54.13;;;32.63;;
3197;SDS011;1611;49.394;11.136;2023-10-19T05:15:45;53.47;;;33.43;;
3197;SDS011;1611;49.394;11.136;2023-10-19T05:18:12;51.23;;;32.20;;
3197;SDS011;1611;49.394;11.136;2023-10-19T05:20:39;52.20;;;35.40;;
3197;SDS011;1611;49.394;11.136;2023-10-19T05:23:06;52.53;;;34.20;;
3197;SDS011;1611;49.394;11.136;2023-10-19T05:25:33;55.70;;;37.60;;
3197;SDS011;1611;49.394;11.136;2023-10-19T05:28:02;49.60;;;35.83;;
3197;SDS011;1611;49.394;11.136;2023-10-19T05:30:31;50.07;;;35.20;;
3197;SDS011;1611;49.394;11.136;2023-10-19T05:32:58;48.03;;;33.60;;
3197;SDS011;1611;49.394;11.136;2023-10-19T05:35:26;50.57;;;35.73;;
3197;SDS011;1611;49.394;11.136;2023-10-19T05:37:54;43.27;;;32.17;;
3197;SDS011;1611;49.394;11.136;2023-10-19T05:40:21;52.50;;;34.20;;
3197;SDS011;1611;49.394;11.136;2023-10-19T05:42:49;51.43;;;36.07;;
3197;SDS011;1611;49.394;11.136;2023-10-19T05:45:15;49.97;;;35.57;;
3197;SDS011;1611;49.394;11.136;2023-10-19T05:47:44;48.20;;;33.47;;
3197;SDS011;1611;49.394;11.136;2023-10-19T05:50:10;46.03;;;32.83;;
3197;SDS011;1611;49.394;11.136;2023-10-19T05:52:39;43.00;;;32.30;;
3197;SDS011;1611;49.394;11.136;2023-10-19T05:55:07;59.93;;;37.23;;
3197;SDS011;1611;49.394;11.136;2023-10-19T05:57:35;57.50;;;37.20;;
3197;SDS011;1611;49.394;11.136;2023-10-19T06:00:05;48.27;;;34.20;;
3197;SDS011;1611;49.394;11.136;2023-10-19T06:02:37;55.30;;;35.90;;
3197;SDS011;1611;49.394;11.136;2023-10-19T06:05:06;51.50;;;33.97;;
3197;SDS011;1611;49.394;11.136;2023-10-19T06:07:34;50.93;;;35.40;;
3197;SDS011;1611;49.394;11.136;2023-10-19T06:10:00;44.17;;;31.73;;
3197;SDS011;1611;49.394;11.136;2023-10-19T06:12:29;53.70;;;35.50;;
3197;SDS011;1611;49.394;11.136;2023-10-19T06:14:56;47.03;;;32.30;;
3197;SDS011;1611;49.394;11.136;2023-10-19T06:17:23;54.10;;;37.13;;
3197;SDS011;1611;49.394;11.136;2023-10-19T06:19:50;45.07;;;33.63;;
3197;SDS011;1611;49.394;11.136;2023-10-19T06:22:18;49.53;;;35.93;;
3197;SDS011;1611;49.394;11.136;2023-10-19T06:24:45;47.07;;;34.33;;
3197;SDS011;1611;49.394;11.136;2023-10-19T06:27:12;53.87;;;36.07;;
3197;SDS011;1611;49.394;11.136;2023-10-19T06:29:39;47.30;;;32.57;;
3197;SDS011;1611;49.394;11.136;2023-10-19T06:32:05;51.30;;;36.10;;
3197;SDS011;1611;49.394;11.136;2023-10-19T06:34:32;55.30;;;34.30;;
3197;SDS011;1611;49.394;11.136;2023-10-19T06:37:00;42.23;;;31.60;;
3197;SDS011;1611;49.394;11.136;2023-10-19T06:39:30;46.83;;;33.17;;
3197;SDS011;1611;49.394;11.136;2023-10-19T06:41:57;48.67;;;32.83;;
3197;SDS011;1611;49.394;11.136;2023-10-19T06:44:24;41.23;;;31.87;;
3197;SDS011;1611;49.394;11.136;2023-10-19T06:46:50;45.20;;;34.30;;
3197;SDS011;1611;49.394;11.136;2023-10-19T06:49:17;43.60;;;33.10;;
3197;SDS011;1611;49.394;11.136;2023-10-19T06:51:44;48.80;;;34.57;;
3197;SDS011;1611;49.394;11.136;2023-10-19T06:54:11;43.50;;;31.43;;
3197;SDS011;1611;49.394;11.136;2023-10-19T06:56:39;45.20;;;33.47;;
3197;SDS011;1611;49.394;11.136;2023-10-19T06:59:06;41.33;;;30.93;;
3197;SDS011;1611;49.394;11.136;2023-10-19T07:01:33;44.60;;;32.57;;
3197;SDS011;1611;49.394;11.136;2023-10-19T07:04:01;45.70;;;32.57;;
3197;SDS011;1611;49.394;11.136;2023-10-19T07:06:28;42.87;;;32.57;;
3197;SDS011;1611;49.394;11.136;2023-10-19T07:08:55;45.87;;;33.97;;
3197;SDS011;1611;49.394;11.136;2023-10-19T07:11:23;42.07;;;30.03;;
3197;SDS011;1611;49.394;11.136;2023-10-19T07:13:51;43.30;;;32.47;;
3197;SDS011;1611;49.394;11.136;2023-10-19T07:16:18;48.07;;;32.27;;
3197;SDS011;1611;49.394;11.136;2023-10-19T07:18:45;44.90;;;34.70;;
3197;SDS011;1611;49.394;11.136;2023-10-19T07:21:12;47.53;;;34.03;;
3197;SDS011;1611;49.394;11.136;2023-10-19T07:23:38;45.33;;;31.40;;
3197;SDS011;1611;49.394;11.136;2023-10-19T07:26:05;40.60;;;30.97;;
3197;SDS011;1611;49.394;11.136;2023-10-19T07:28:32;45.67;;;32.23;;
3197;SDS011;1611;49.394;11.136;2023-10-19T07:31:01;40.53;;;30.73;;
3197;SDS011;1611;49.394;11.136;2023-10-19T07:33:28;42.83;;;31.43;;
3197;SDS011;1611;49.394;11.136;2023-10-19T07:35:55;41.40;;;29.73;;
3197;SDS011;1611;49.394;11.136;2023-10-19T07:38:25;41.37;;;31.27;;
3197;SDS011;1611;49.394;11.136;2023-10-19T07:40:53;45.93;;;32.73;;
3197;SDS011;1611;49.394;11.136;2023-10-19T07:43:20;48.40;;;35.50;;
3197;SDS011;1611;49.394;11.136;2023-10-19T07:45:47;39.30;;;29.63;;
3197;SDS011;1611;49.394;11.136;2023-10-19T07:48:15;42.80;;;32.67;;
3197;SDS011;1611;49.394;11.136;2023-10-19T07:50:42;37.83;;;28.07;;
3197;SDS011;1611;49.394;11.136;2023-10-19T07:53:10;40.50;;;31.20;;
3197;SDS011;1611;49.394;11.136;2023-10-19T07:55:36;38.87;;;29.03;;
3197;SDS011;1611;49.394;11.136;2023-10-19T07:58:04;40.33;;;30.43;;
3197;SDS011;1611;49.394;11.136;2023-10-19T08:00:31;40.03;;;29.23;;
3197;SDS011;1611;49.394;11.136;2023-10-19T08:03:00;39.97;;;29.20;;
3197;SDS011;1611;49.394;11.136;2023-10-19T08:05:28;34.50;;;26.60;;
3197;SDS011;1611;49.394;11.136;2023-10-19T08:07:55;34.93;;;28.33;;
3197;SDS011;1611;49.394;11.136;2023-10-19T08:10:24;38.00;;;29.17;;
3197;SDS011;1611;49.394;11.136;2023-10-19T08:12:51;36.20;;;27.90;;
3197;SDS011;1611;49.394;11.136;2023-10-19T08:15:20;26.37;;;22.37;;
3197;SDS011;1611;49.394;11.136;2023-10-19T08:17:47;34.57;;;26.10;;
3197;SDS011;1611;49.394;11.136;2023-10-19T08:20:16;31.87;;;23.53;;
3197;SDS011;1611;49.394;11.136;2023-10-19T08:22:49;35.23;;;26.20;;
3197;SDS011;1611;49.394;11.136;2023-10-19T08:25:16;34.53;;;27.10;;
3197;SDS011;1611;49.394;11.136;2023-10-19T08:27:44;33.30;;;26.60;;
3197;SDS011;1611;49.394;11.136;2023-10-19T08:30:13;38.87;;;27.63;;
3197;SDS011;1611;49.394;11.136;2023-10-19T08:32:43;33.80;;;27.73;;
3197;SDS011;1611;49.394;11.136;2023-10-19T08:35:13;35.83;;;27.50;;
3197;SDS011;1611;49.394;11.136;2023-10-19T08:37:40;32.57;;;27.80;;
3197;SDS011;1611;49.394;11.136;2023-10-19T08:40:10;35.63;;;27.20;;
3197;SDS011;1611;49.394;11.136;2023-10-19T08:42:39;40.40;;;28.60;;
3197;SDS011;1611;49.394;11.136;2023-10-19T08:45:06;35.00;;;27.00;;
3197;SDS011;1611;49.394;11.136;2023-10-19T08:47:34;34.00;;;27.83;;
3197;SDS011;1611;49.394;11.136;2023-10-19T08:50:02;31.70;;;26.37;;
3197;SDS011;1611;49.394;11.136;2023-10-19T08:52:30;31.70;;;26.87;;
3197;SDS011;1611;49.394;11.136;2023-10-19T08:54:57;41.20;;;28.00;;
3197;SDS011;1611;49.394;11.136;2023-10-19T08:57:25;37.47;;;26.20;;
3197;SDS011;1611;49.394;11.136;2023-10-19T08:59:53;30.07;;;24.23;;
3197;SDS011;1611;49.394;11.136;2023-10-19T09:02:23;31.17;;;25.10;;
3197;SDS011;1611;49.394;11.136;2023-10-19T09:04:50;31.80;;;25.37;;
3197;SDS011;1611;49.394;11.136;2023-10-19T09:07:17;37.17;;;26.63;;
3197;SDS011;1611;49.394;11.136;2023-10-19T09:09:43;36.73;;;26.97;;
3197;SDS011;1611;49.394;11.136;2023-10-19T09:12:12;31.93;;;26.20;;
3197;SDS011;1611;49.394;11.136;2023-10-19T09:14:40;29.60;;;24.27;;
3197;SDS011;1611;49.394;11.136;2023-10-19T09:17:08;31.43;;;24.57;;
3197;SDS011;1611;49.394;11.136;2023-10-19T09:19:38;31.20;;;24.30;;
3197;SDS011;1611;49.394;11.136;2023-10-19T09:22:07;30.97;;;24.17;;
3197;SDS011;1611;49.394;11.136;2023-10-19T09:24:42;31.30;;;24.10;;
3197;SDS011;1611;49.394;11.136;2023-10-19T09:27:10;31.80;;;24.90;;
3197;SDS011;1611;49.394;11.136;2023-10-19T09:29:37;31.70;;;23.63;;
3197;SDS011;1611;49.394;11.136;2023-10-19T09:32:07;31.50;;;25.10;;
3197;SDS011;1611;49.394;11.136;2023-10-19T09:34:34;36.60;;;25.07;;
3197;SDS011;1611;49.394;11.136;2023-10-19T09:37:02;26.17;;;23.00;;
3197;SDS011;1611;49.394;11.136;2023-10-19T09:39:30;32.53;;;24.13;;
3197;SDS011;1611;49.394;11.136;2023-10-19T09:42:00;36.00;;;25.87;;
3197;SDS011;1611;49.394;11.136;2023-10-19T09:44:32;30.87;;;24.67;;
3197;SDS011;1611;49.394;11.136;2023-10-19T09:47:04;40.33;;;24.80;;
3197;SDS011;1611;49.394;11.136;2023-10-19T09:49:38;34.20;;;25.73;;
3197;SDS011;1611;49.394;11.136;2023-10-19T09:52:06;31.50;;;24.47;;
3197;SDS011;1611;49.394;11.136;2023-10-19T09:54:38;35.93;;;28.60;;
3197;SDS011;1611;49.394;11.136;2023-10-19T09:57:13;35.70;;;25.23;;
3197;SDS011;1611;49.394;11.136;2023-10-19T09:59:45;29.67;;;22.60;;
3197;SDS011;1611;49.394;11.136;2023-10-19T10:02:18;37.10;;;21.40;;
3197;SDS011;1611;49.394;11.136;2023-10-19T10:04:47;33.00;;;22.63;;
3197;SDS011;1611;49.394;11.136;2023-10-19T10:07:14;26.87;;;22.33;;
3197;SDS011;1611;49.394;11.136;2023-10-19T10:09:42;25.00;;;21.73;;
3197;SDS011;1611;49.394;11.136;2023-10-19T10:12:19;32.80;;;22.10;;
3197;SDS011;1611;49.394;11.136;2023-10-19T10:14:58;27.40;;;22.47;;
3197;SDS011;1611;49.394;11.136;2023-10-19T10:17:28;27.43;;;22.37;;
3197;SDS011;1611;49.394;11.136;2023-10-19T10:19:55;25.60;;;20.97;;
3197;SDS011;1611;49.394;11.136;2023-10-19T10:22:43;28.40;;;21.07;;
3197;SDS011;1611;49.394;11.136;2023-10-19T10:25:24;26.40;;;19.90;;
3197;SDS011;1611;49.394;11.136;2023-10-19T10:27:52;30.57;;;19.77;;
3197;SDS011;1611;49.394;11.136;2023-10-19T10:30:19;27.13;;;22.00;;
3197;SDS011;1611;49.394;11.136;2023-10-19T10:32:48;24.80;;;20.43;;
3197;SDS011;1611;49.394;11.136;2023-10-19T10:38:21;24.37;;;20.70;;
3197;SDS011;1611;49.394;11.136;2023-10-19T10:40:49;23.00;;;17.43;;
3197;SDS011;1611;49.394;11.136;2023-10-19T10:43:18;23.90;;;20.37;;
3197;SDS011;1611;49.394;11.136;2023-10-19T10:45:46;29.20;;;22.00;;
3197;SDS011;1611;49.394;11.136;2023-10-19T10:48:14;24.10;;;19.40;;
3197;SDS011;1611;49.394;11.136;2023-10-19T10:50:42;23.90;;;19.23;;
3197;SDS011;1611;49.394;11.136;2023-10-19T10:53:11;21.53;;;17.83;;
3197;SDS011;1611;49.394;11.136;2023-10-19T10:55:38;23.93;;;18.40;;
3197;SDS011;1611;49.394;11.136;2023-10-19T10:58:05;17.27;;;15.47;;
3197;SDS011;1611;49.394;11.136;2023-10-19T11:00:32;18.73;;;15.77;;
3197;SDS011;1611;49.394;11.136;2023-10-19T11:03:02;29.93;;;19.10;;
3197;SDS011;1611;49.394;11.136;2023-10-19T11:05:33;19.27;;;17.20;;
3197;SDS011;1611;49.394;11.136;2023-10-19T11:08:08;21.17;;;18.23;;
3197;SDS011;1611;49.394;11.136;2023-10-19T11:10:38;21.63;;;16.23;;
3197;SDS011;1611;49.394;11.136;2023-10-19T11:13:07;20.37;;;16.10;;
3197;SDS011;1611;49.394;11.136;2023-10-19T11:15:36;21.70;;;17.57;;
3197;SDS011;1611;49.394;11.136;2023-10-19T11:18:04;22.17;;;16.40;;
3197;SDS011;1611;49.394;11.136;2023-10-19T11:20:34;20.20;;;16.60;;
3197;SDS011;1611;49.394;11.136;2023-10-19T11:23:01;17.60;;;15.80;;
3197;SDS011;1611;49.394;11.136;2023-10-19T11:25:28;21.90;;;16.57;;
3197;SDS011;1611;49.394;11.136;2023-10-19T11:27:57;22.10;;;17.17;;
3197;SDS011;1611;49.394;11.136;2023-10-19T11:30:25;22.77;;;16.10;;
3197;SDS011;1611;49.394;11.136;2023-10-19T11:32:53;18.17;;;15.77;;
3197;SDS011;1611;49.394;11.136;2023-10-19T11:35:23;18.20;;;14.70;;
3197;SDS011;1611;49.394;11.136;2023-10-19T11:37:53;18.67;;;15.40;;
3197;SDS011;1611;49.394;11.136;2023-10-19T11:40:20;18.17;;;13.53;;
3197;SDS011;1611;49.394;11.136;2023-10-19T11:42:47;16.03;;;13.50;;
3197;SDS011;1611;49.394;11.136;2023-10-19T11:45:15;20.30;;;14.60;;
3197;SDS011;1611;49.394;11.136;2023-10-19T11:47:42;19.43;;;14.90;;
3197;SDS011;1611;49.394;11.136;2023-10-19T11:50:10;15.90;;;14.30;;
3197;SDS011;1611;49.394;11.136;2023-10-19T11:52:40;15.63;;;13.53;;
3197;SDS011;1611;49.394;11.136;2023-10-19T11:55:09;16.70;;;14.10;;
3197;SDS011;1611;49.394;11.136;2023-10-19T11:57:35;17.33;;;13.10;;
3197;SDS011;1611;49.394;11.136;2023-10-19T12:00:02;14.23;;;12.83;;
3197;SDS011;1611;49.394;11.136;2023-10-19T12:02:34;18.23;;;15.00;;
3197;SDS011;1611;49.394;11.136;2023-10-19T12:05:02;24.93;;;14.60;;
3197;SDS011;1611;49.394;11.136;2023-10-19T12:07:34;14.93;;;12.13;;
3197;SDS011;1611;49.394;11.136;2023-10-19T12:10:01;15.60;;;12.77;;
3197;SDS011;1611;49.394;11.136;2023-10-19T12:12:30;21.87;;;14.03;;
3197;SDS011;1611;49.394;11.136;2023-10-19T12:14:57;14.77;;;13.30;;
3197;SDS011;1611;49.394;11.136;2023-10-19T12:17:24;19.47;;;14.57;;
3197;SDS011;1611;49.394;11.136;2023-10-19T12:19:51;17.53;;;14.30;;
3197;SDS011;1611;49.394;11.136;2023-10-19T12:22:19;14.20;;;12.67;;
3197;SDS011;1611;49.394;11.136;2023-10-19T12:24:46;15.40;;;13.80;;
3197;SDS011;1611;49.394;11.136;2023-10-19T12:27:14;19.00;;;13.93;;
3197;SDS011;1611;49.394;11.136;2023-10-19T12:29:42;21.00;;;13.17;;
3197;SDS011;1611;49.394;11.136;2023-10-19T12:32:09;14.80;;;13.30;;
3197;SDS011;1611;49.394;11.136;2023-10-19T12:34:39;14.60;;;12.53;;
3197;SDS011;1611;49.394;11.136;2023-10-19T12:37:06;13.90;;;12.40;;
3197;SDS011;1611;49.394;11.136;2023-10-19T12:39:35;14.30;;;12.40;;
3197;SDS011;1611;49.394;11.136;2023-10-19T12:42:07;15.00;;;11.53;;
3197;SDS011;1611;49.394;11.136;2023-10-19T12:44:34;18.33;;;13.20;;
3197;SDS011;1611;49.394;11.136;2023-10-19T12:47:07;13.27;;;11.80;;
3197;SDS011;1611;49.394;11.136;2023-10-19T12:49:37;16.33;;;12.53;;
3197;SDS011;1611;49.394;11.136;2023-10-19T12:52:04;14.23;;;12.43;;
3197;SDS011;1611;49.394;11.136;2023-10-19T12:54:32;16.07;;;12.90;;
3197;SDS011;1611;49.394;11.136;2023-10-19T12:56:59;15.50;;;12.00;;
3197;SDS011;1611;49.394;11.136;2023-10-19T12:59:28;14.47;;;12.90;;
3197;SDS011;1611;49.394;11.136;2023-10-19T13:01:55;13.10;;;11.67;;
3197;SDS011;1611;49.394;11.136;2023-10-19T13:04:25;14.30;;;11.27;;
3197;SDS011;1611;49.394;11.136;2023-10-19T13:06:56;17.50;;;11.70;;
3197;SDS011;1611;49.394;11.136;2023-10-19T13:09:23;14.23;;;11.10;;
3197;SDS011;1611;49.394;11.136;2023-10-19T13:11:56;15.43;;;11.37;;
3197;SDS011;1611;49.394;11.136;2023-10-19T13:14:23;11.80;;;10.60;;
3197;SDS011;1611;49.394;11.136;2023-10-19T13:16:50;14.97;;;11.30;;
3197;SDS011;1611;49.394;11.136;2023-10-19T13:19:17;12.90;;;11.60;;
3197;SDS011;1611;49.394;11.136;2023-10-19T13:21:47;13.57;;;11.20;;
3197;SDS011;1611;49.394;11.136;2023-10-19T13:24:15;13.13;;;11.63;;
3197;SDS011;1611;49.394;11.136;2023-10-19T13:26:42;11.63;;;10.50;;
3197;SDS011;1611;49.394;11.136;2023-10-19T13:29:11;16.67;;;12.20;;
3197;SDS011;1611;49.394;11.136;2023-10-19T13:31:40;12.53;;;10.57;;
3197;SDS011;1611;49.394;11.136;2023-10-19T13:34:09;13.13;;;11.80;;
3197;SDS011;1611;49.394;11.136;2023-10-19T13:36:38;16.40;;;11.37;;
3197;SDS011;1611;49.394;11.136;2023-10-19T13:39:06;10.70;;;9.70;;
3197;SDS011;1611;49.394;11.136;2023-10-19T13:41:38;14.23;;;11.40;;
3197;SDS011;1611;49.394;11.136;2023-10-19T13:44:05;16.33;;;11.00;;
3197;SDS011;1611;49.394;11.136;2023-10-19T13:46:32;12.10;;;9.80;;
3197;SDS011;1611;49.394;11.136;2023-10-19T13:48:59;11.80;;;10.60;;
3197;SDS011;1611;49.394;11.136;2023-10-19T13:51:28;16.47;;;10.03;;
3197;SDS011;1611;49.394;11.136;2023-10-19T13:53:56;13.10;;;10.80;;
3197;SDS011;1611;49.394;11.136;2023-10-19T13:56:24;14.07;;;10.77;;
3197;SDS011;1611;49.394;11.136;2023-10-19T13:58:51;13.27;;;11.93;;
3197;SDS011;1611;49.394;11.136;2023-10-19T14:01:19;13.27;;;11.50;;
3197;SDS011;1611;49.394;11.136;2023-10-19T14:03:50;16.10;;;11.73;;
3197;SDS011;1611;49.394;11.136;2023-10-19T14:06:19;13.47;;;10.57;;
3197;SDS011;1611;49.394;11.136;2023-10-19T14:08:47;12.70;;;10.97;;
3197;SDS011;1611;49.394;11.136;2023-10-19T14:11:14;13.57;;;12.17;;
3197;SDS011;1611;49.394;11.136;2023-10-19T14:13:42;11.90;;;10.70;;
3197;SDS011;1611;49.394;11.136;2023-10-19T14:16:10;15.27;;;10.57;;
3197;SDS011;1611;49.394;11.136;2023-10-19T14:18:36;12.90;;;11.60;;
3197;SDS011;1611;49.394;11.136;2023-10-19T14:21:10;13.60;;;11.90;;
3197;SDS011;1611;49.394;11.136;2023-10-19T14:23:39;15.53;;;11.50;;
3197;SDS011;1611;49.394;11.136;2023-10-19T14:26:09;23.67;;;14.83;;
3197;SDS011;1611;49.394;11.136;2023-10-19T14:28:36;16.80;;;14.33;;
3197;SDS011;1611;49.394;11.136;2023-10-19T14:31:07;14.90;;;11.87;;
3197;SDS011;1611;49.394;11.136;2023-10-19T14:33:34;17.63;;;13.33;;
3197;SDS011;1611;49.394;11.136;2023-10-19T14:36:01;13.70;;;12.30;;
3197;SDS011;1611;49.394;11.136;2023-10-19T14:38:29;16.90;;;13.00;;
3197;SDS011;1611;49.394;11.136;2023-10-19T14:40:55;17.30;;;10.93;;
3197;SDS011;1611;49.394;11.136;2023-10-19T14:43:23;16.00;;;12.07;;
3197;SDS011;1611;49.394;11.136;2023-10-19T14:45:50;14.63;;;12.47;;
3197;SDS011;1611;49.394;11.136;2023-10-19T14:48:19;21.87;;;15.73;;